Latest Coastal Weather Observations for Merimbula

IDN60701

Issued at 11:11 pm EST Saturday 19 August 2017 (issued every 10 minutes, with the page automatically refreshed every 10 minutes)

About coastal observations | Map of coastal stations | Coastal observations for NSW | Marine services | Other Formats
Station Details ID: 069147 Name: MERIMBULA AIRPORT AWS Lat: -36.91 Lon: 149.90 Height: 1.5 m
Data from the previous 72 hours. | See also: Recent months at Merimbula
Date/Time
EST
Temp
°C
Wind Pressure Rain since
9am
mm
Weather Cloud Vis
km
Sea
Height
m
Swell
Dir  Spd
kts
Gust
kts
hPa Trend Height
m
Period
s
Dir
19/11:00pm 8.2 WSW 8 13 1023.9 - 0.4 - - 10 - - - -
19/10:30pm 8.1 WSW 8 12 1023.9 - 0.4 - - 10 - - - -
19/10:00pm 8.4 WSW 9 14 1023.9 - 0.4 - - 10 - - - -
19/09:30pm 8.1 SW 8 12 1024.0 - 0.4 - - 10 - - - -
19/09:00pm 8.3 SW 7 11 1024.2 - 0.4 - - 10 - - - -
19/08:30pm 8.6 WSW 9 16 1024.0 - 0.4 - - 10 - - - -
19/08:00pm 8.9 SW 10 17 1023.8 - 0.4 - - 10 - - - -
19/07:30pm 9.1 WSW 10 19 1023.6 - 0.4 - - 10 - - - -
19/07:00pm 9.1 WSW 10 16 1023.6 - 0.4 - - 10 - - - -
19/06:30pm 9.1 SW 11 20 1023.4 - 0.4 - - 10 - - - -
19/06:00pm 9.4 SW 9 16 1023.2 - 0.4 - - 10 - - - -
19/05:30pm 9.5 SW 9 16 1022.6 - 0.4 - - 10 - - - -
19/05:00pm 10.4 SSW 10 19 1022.1 - 0.4 - - 10 - - - -
19/04:30pm 11.3 SW 12 21 1021.7 - 0.4 - Partly cloudy 10 - - - -
19/04:00pm 11.7 SW 13 21 1021.3 - 0.4 - Partly cloudy 10 - - - -
19/03:30pm 11.4 SSE 8 12 1020.9 - 0.4 - Partly cloudy 10 - - - -
19/03:00pm 10.8 S 7 12 1020.8 - 0.4 - Mostly clear 10 - - - -
19/02:30pm 9.7 S 9 15 1020.7 - 0.4 - Partly cloudy 10 - - - -
19/02:00pm 10.3 S 8 12 1020.6 - 0.4 - Partly cloudy 10 - - - -
19/01:30pm 9.4 SSW 8 13 1020.7 - 0.4 - Partly cloudy 10 - - - -
19/01:00pm 8.9 SSW 14 22 1020.8 - 0.4 - Partly cloudy 10 - - - -
19/12:33pm 10.7 SSW 15 28 1020.6 - 0.2 - Partly cloudy 10 - - - -
19/12:30pm 10.8 SW 14 24 1020.4 - 0.2 - Partly cloudy 10 - - - -
19/12:00pm 10.2 SSW 11 18 1020.5 - 0.2 - Cloudy 10 - - - -
19/11:30am 10.6 SSW 11 24 1020.3 - 0.2 - Partly cloudy 10 - - - -
19/11:00am 9.0 SSW 13 21 1020.5 - 0.2 - Partly cloudy 10 - - - -
19/10:30am 9.3 SSW 12 19 1020.2 - 0.0 - Partly cloudy 10 - - - -
19/10:00am 10.2 SW 14 22 1019.9 - 0.0 - Partly cloudy 10 - - - -
19/09:30am 9.3 S 14 21 1019.7 - 0.0 - Partly cloudy 10 - - - -
19/09:00am 9.6 SSW 11 21 1019.1 - 1.2 - Partly cloudy 10 - - - -
19/08:30am 8.6 SW 12 23 1018.7 - 1.2 - Partly cloudy 10 - - - -
19/08:00am 8.2 SW 10 18 1018.6 - 1.2 - Partly cloudy 10 - - - -
19/07:30am 7.3 SW 10 19 1017.9 - 1.2 - Partly cloudy 10 - - - -
19/07:00am 7.2 SW 11 18 1017.5 - 1.2 - Partly cloudy 10 - - - -
19/06:30am 7.3 SW 8 14 1017.0 - 1.2 - Partly cloudy 10 - - - -
19/06:00am 7.4 SW 9 17 1016.3 - 1.2 - Mostly clear 10 - - - -
19/05:30am 6.8 SW 7 11 1015.8 - 1.2 - - 10 - - - -
19/05:00am 7.3 SW 8 17 1015.4 - 1.2 - Partly cloudy 10 - - - -
19/04:30am 6.9 SW 9 14 1015.2 - 1.2 - Partly cloudy 10 - - - -
19/04:00am 6.7 SW 7 14 1014.8 - 1.2 - Partly cloudy 10 - - - -
19/03:30am 6.8 SW 12 22 1014.5 - 1.2 - Partly cloudy 10 - - - -
19/03:00am 7.1 SW 9 16 1014.1 - 0.8 - Mostly cloudy 10 - - - -
19/02:30am 7.3 WSW 11 20 1013.9 - 0.8 - Partly cloudy 10 - - - -
19/02:00am 7.1 WSW 11 21 1014.0 - 0.8 - Partly cloudy 10 - - - -
19/01:30am 7.5 WSW 9 20 1013.8 - 0.4 - Partly cloudy 10 - - - -
19/01:00am 8.1 SW 13 25 1013.5 - 0.2 - Partly cloudy 10 - - - -
19/12:30am 9.8 WSW 10 16 1012.5 - 0.0 - Partly cloudy 10 - - - -
19/12:00am 9.7 W 8 18 1011.8 - 0.0 - - 10 - - - -
 
Date/Time
EST
Temp
°C
Wind Pressure Rain since
9am
mm
Weather Cloud Vis
km
Sea
Height
m
Swell
Dir  Spd
kts
Gust
kts
hPa Trend Height
m
Period
s
Dir
18/11:30pm 10.2 WSW 12 23 1011.4 - 0.0 - - 10 - - - -
18/11:00pm 10.2 WSW 12 20 1011.4 - 0.0 - - 10 - - - -
18/10:54pm 10.4 WSW 15 25 1011.5 - 0.0 - - 10 - - - -
18/10:30pm 10.4 WSW 11 23 1011.3 - 0.0 - - 10 - - - -
18/10:00pm 10.4 SW 10 21 1011.1 - 0.0 - - 10 - - - -
18/09:30pm 10.1 SW 6 11 1011.1 - 0.0 - Partly cloudy 10 - - - -
18/09:00pm 10.7 WSW 9 17 1010.8 - 0.0 - Partly cloudy 10 - - - -
18/08:30pm 10.8 WSW 9 15 1010.6 - 0.0 - Partly cloudy 10 - - - -
18/08:00pm 11.1 WSW 12 21 1010.4 - 0.0 - Partly cloudy 10 - - - -
18/07:30pm 10.9 WSW 9 16 1010.2 - 0.0 - Partly cloudy 10 - - - -
18/07:00pm 10.8 SW 7 13 1009.9 - 0.0 - Partly cloudy 10 - - - -
18/06:30pm 11.2 SW 11 21 1009.4 - 0.0 - Partly cloudy 10 - - - -
18/06:00pm 11.5 SW 7 13 1008.8 - 0.0 - Cloudy 10 - - - -
18/05:30pm 11.7 SW 6 10 1007.9 - 0.0 - Partly cloudy 10 - - - -
18/05:00pm 12.5 SW 9 19 1007.1 - 0.0 - - 10 - - - -
18/04:30pm 13.8 WSW 11 23 1006.2 - 0.0 - - 10 - - - -
18/04:01pm 14.1 WSW 16 26 1005.2 - 0.0 - - 10 - - - -
18/04:00pm 14.1 WSW 16 25 1005.2 - 0.0 - - 10 - - - -
18/03:30pm 14.4 WSW 16 31 1004.7 - 0.0 - - 10 - - - -
18/03:05pm 14.8 SW 14 25 1004.5 - 0.0 - Partly cloudy 10 - - - -
18/03:00pm 14.8 WSW 11 25 1004.5 - 0.0 - Mostly clear 10 - - - -
18/02:42pm 15.6 WSW 13 31 1004.5 - 0.0 - Partly cloudy 10 - - - -
18/02:30pm 16.1 WSW 14 24 1004.2 - 0.0 - Partly cloudy 10 - - - -
18/02:03pm 15.2 W 17 27 1004.0 - 0.0 - Partly cloudy 10 - - - -
18/02:00pm 15.3 W 16 26 1004.0 - 0.0 - Partly cloudy 10 - - - -
18/01:51pm 15.2 WSW 9 25 1003.8 - 0.0 - Partly cloudy 10 - - - -
18/01:30pm 13.8 S 10 16 1003.7 - 0.0 - Cloudy 10 - - - -
18/01:02pm 14.9 W 14 27 1003.1 - 0.0 - Partly cloudy 10 - - - -
18/01:00pm 14.9 W 12 24 1003.3 - 0.0 - Partly cloudy 10 - - - -
18/12:30pm 15.1 WSW 15 27 1003.5 - 0.0 - Partly cloudy 10 - - - -
18/12:01pm 15.0 W 15 29 1003.4 - 0.0 - Cloudy 10 - - - -
18/12:00pm 15.0 WSW 14 24 1003.3 - 0.0 - Cloudy 10 - - - -
18/11:31am 16.5 W 17 27 1003.4 - 0.0 - Partly cloudy 10 - - - -
18/11:30am 16.2 W 18 27 1003.4 - 0.0 - Partly cloudy 10 - - - -
18/11:00am 15.8 W 18 29 1003.2 - 0.0 - Partly cloudy 10 - - - -
18/10:35am 15.5 WSW 19 32 1003.5 - 0.0 - Partly cloudy 10 - - - -
18/10:30am 15.3 WSW 15 29 1003.7 - 0.0 - Partly cloudy 10 - - - -
18/10:28am 15.4 W 13 29 1003.5 - 0.0 - Partly cloudy 10 - - - -
18/10:00am 15.4 WSW 7 12 1003.6 - 0.0 - Partly cloudy 10 - - - -
18/09:30am 14.3 WNW 9 16 1003.7 - 0.0 - - 10 - - - -
18/09:00am 13.3 WNW 10 15 1003.8 - 0.0 - - 10 - - - -
18/08:30am 12.5 W 10 16 1003.7 - 0.0 - - 10 - - - -
18/08:00am 11.7 WSW 7 11 1003.8 - 0.0 - - 10 - - - -
18/07:30am 10.9 W 8 13 1003.4 - 0.0 - - 10 - - - -
18/07:00am 10.2 WSW 6 11 1003.2 - 0.0 - - 10 - - - -
18/06:30am 9.3 WSW 5 11 1002.8 - 0.0 - - 10 - - - -
18/06:00am 6.1 SW 1 6 1002.2 - 0.0 - - 10 - - - -
18/05:30am 8.4 NNE 4 7 1002.0 - 0.0 - - 10 - - - -
18/05:00am 5.7 S 1 6 1001.7 - 0.0 - - 10 - - - -
18/04:30am 5.0 N 1 5 1001.6 - 0.0 - - 10 - - - -
18/04:00am 5.3 NW 4 7 1001.6 - 0.0 - - 10 - - - -
18/03:30am 4.7 CALM 0 0 1001.4 - 0.0 - - 10 - - - -
18/03:00am 5.6 CALM 0 0 1001.6 - 0.0 - - 10 - - - -
18/02:30am 7.0 S 3 7 1001.8 - 0.0 - - 10 - - - -
18/02:00am 10.1 WNW 5 8 1001.9 - 0.0 - - 10 - - - -
18/01:30am 9.2 WSW 3 11 1001.9 - 0.0 - - 10 - - - -
18/01:00am 7.0 CALM 0 0 1001.9 - 0.0 - - 10 - - - -
18/12:30am 6.8 CALM 0 0 1002.4 - 0.0 - - 10 - - - -
18/12:00am 7.0 CALM 0 0 1002.4 - 0.0 - Cloudy 10 - - - -
 
Date/Time
EST
Temp
°C
Wind Pressure Rain since
9am
mm
Weather Cloud Vis
km
Sea
Height
m
Swell
Dir  Spd
kts
Gust
kts
hPa Trend Height
m
Period
s
Dir
17/11:30pm 8.3 SSE 3 7 1002.1 - 0.0 - - 10 - - - -
17/11:00pm 9.8 NW 7 10 1002.6 - 0.0 - - 10 - - - -
17/10:30pm 9.1 WNW 5 7 1002.8 - 0.0 - - 10 - - - -
17/10:00pm 10.4 WSW 5 7 1003.2 - 0.0 - - 10 - - - -
17/09:30pm 11.0 NNW 7 11 1003.3 - 0.0 - Partly cloudy 10 - - - -
17/09:00pm 11.8 W 8 12 1003.7 - 0.0 - Cloudy 10 - - - -
17/08:30pm 12.5 WSW 15 23 1004.6 - 0.0 - Partly cloudy 10 - - - -
17/08:00pm 13.2 WNW 11 18 1003.6 - 0.0 - Partly cloudy 10 - - - -
17/07:30pm 13.2 WNW 10 13 1003.0 - 0.0 - - 10 - - - -
17/07:00pm 13.3 WNW 10 15 1002.6 - 0.0 - - 10 - - - -
17/06:30pm 13.4 NW 9 11 1001.8 - 0.0 - - 10 - - - -
17/06:00pm 13.7 NW 10 14 1001.6 - 0.0 - - 10 - - - -
17/05:30pm 14.6 NW 11 15 1001.2 - 0.0 - - 10 - - - -
17/05:00pm 15.9 WNW 10 16 1000.9 - 0.0 - - 10 - - - -
17/04:30pm 16.9 WNW 12 17 1000.5 - 0.0 - - 10 - - - -
17/04:13pm 17.2 WNW 16 26 1000.3 - 0.0 - - 10 - - - -
17/04:00pm 17.6 WNW 14 21 1000.3 - 0.0 - - 10 - - - -
17/03:30pm 17.6 WNW 15 22 1000.2 - 0.0 - - 10 - - - -
17/03:00pm 17.8 WNW 22 34 999.6 - 0.0 - - 10 - - - -
17/02:36pm 19.2 WNW 18 31 999.1 - 0.0 - - 10 - - - -
17/02:30pm 19.2 WNW 17 25 999.0 - 0.0 - - 10 - - - -
17/02:00pm 19.4 WNW 18 28 999.0 - 0.0 - - 10 - - - -
17/01:31pm 19.4 NW 21 32 998.9 - 0.0 - - 10 - - - -
17/01:30pm 19.4 NW 21 29 998.8 - 0.0 - - 10 - - - -
17/01:06pm 19.9 NW 21 31 998.9 - 0.0 - - 10 - - - -
17/01:00pm 19.4 NW 22 31 998.9 - 0.0 - - 10 - - - -
17/12:30pm 19.1 NW 23 34 999.3 - 0.0 - - 10 - - - -
17/12:00pm 19.6 WNW 22 33 999.4 - 0.0 - - 10 - - - -
17/11:30am 19.3 WNW 25 40 1000.0 - 0.0 - - 10 - - - -
17/11:28am 19.4 WNW 23 40 999.9 - 0.0 - - 10 - - - -
17/11:00am 19.0 WNW 19 29 1000.5 - 0.0 - - 10 - - - -
17/10:31am 18.3 WNW 21 34 1000.9 - 0.0 - - 10 - - - -
17/10:30am 18.4 WNW 21 29 1001.0 - 0.0 - - 10 - - - -
17/10:01am 17.8 NW 21 33 1001.5 - 0.0 - - 10 - - - -
17/10:00am 17.9 NW 21 30 1001.6 - 0.0 - - 10 - - - -
17/09:35am 17.2 NW 19 29 1001.9 - 0.0 - - 10 - - - -
17/09:30am 17.0 NW 18 26 1002.1 - 0.0 - - 10 - - - -
17/09:25am 17.1 NW 16 26 1002.2 - 0.0 - - 10 - - - -
17/09:00am 16.8 WNW 14 20 1002.7 - 0.0 - - 10 - - - -
17/08:30am 16.3 WNW 14 25 1003.0 - 0.0 - - 10 - - - -
17/08:22am 16.0 NW 15 25 1003.1 - 0.0 - - 10 - - - -
17/08:00am 15.5 NW 13 17 1003.0 - 0.0 - - 10 - - - -
17/07:30am 15.1 WNW 7 11 1003.0 - 0.0 - - 10 - - - -
17/07:00am 14.5 WNW 8 13 1002.6 - 0.0 - - 10 - - - -
17/06:30am 14.4 NW 13 19 1001.9 - 0.0 - - 10 - - - -
17/06:10am 14.7 WNW 15 25 1001.5 - 0.0 - - 10 - - - -
17/06:00am 14.5 WNW 14 22 1001.5 - 0.0 - - 10 - - - -
17/05:35am 14.7 WNW 15 25 1001.4 - 0.0 - - 10 - - - -
17/05:30am 14.4 WNW 14 25 1001.4 - 0.0 - - 10 - - - -
17/05:00am 13.8 WNW 12 18 1001.1 - 0.0 - - 10 - - - -
17/04:30am 14.1 WNW 16 23 1000.7 - 0.0 - - 10 - - - -
17/04:00am 14.3 NW 15 25 1001.0 - 0.0 - - 10 - - - -
17/03:30am 14.3 NW 17 25 1001.2 - 0.0 - - 10 - - - -
17/03:09am 14.2 NW 17 27 1001.3 - 0.0 - - 10 - - - -
17/03:00am 14.3 NW 18 24 1001.4 - 0.0 - - 10 - - - -
17/02:44am 14.3 NW 17 28 1001.5 - 0.0 - - 10 - - - -
17/02:30am 14.3 WNW 17 25 1001.5 - 0.0 - - 10 - - - -
17/02:00am 14.3 WNW 15 25 1001.6 - 0.0 - - 10 - - - -
17/01:30am 14.5 WNW 18 28 1002.0 - 0.0 - - 10 - - - -
17/01:05am 14.4 WNW 18 28 1002.1 - 0.0 - - 10 - - - -
17/01:00am 14.6 WNW 18 26 1002.1 - 0.0 - - 10 - - - -
17/12:30am 14.3 WNW 14 19 1002.2 - 0.0 - - 10 - - - -
17/12:00am 14.2 WNW 12 20 1002.4 - 0.0 - - 10 - - - -
 
Date/Time
EST
Temp
°C
Wind Pressure Rain since
9am
mm
Weather Cloud Vis
km
Sea
Height
m
Swell
Dir  Spd
kts
Gust
kts
hPa Trend Height
m
Period
s
Dir
16/11:30pm 14.2 WNW 13 18 1003.0 - 0.0 - - 10 - - - -

Other Formats:

Comma delimited format used in spreadsheet applications
http://www.bom.gov.au/fwo/IDN60701/IDN60701.95929.axf

JavaScript Object Notation format (JSON) in row-major order
http://www.bom.gov.au/fwo/IDN60701/IDN60701.95929.json